Time;durP1;ratioP1;P1;durP2;ratioP2;P2;SDS_P1;SDS_P2;PMS_P1;PMS_P2;Temp;Humidity;BMP_temperature;BMP_pressure;BME280_temperature;BME280_humidity;BME280_pressure;Samples;Min_cycle;Max_cycle;Signal;HPM_P1;HPM_P2
2023/01/03 00:01:51;;;;;;;0.70;0.60;;;;;;;9.27;93.96;99181.34;5034509;28;20590;-71
2023/01/03 00:04:18;;;;;;;0.80;0.80;;;;;;;9.34;92.41;99186.75;5035578;28;20236;-71
2023/01/03 00:06:50;;;;;;;0.60;0.60;;;;;;;9.31;94.07;99187.09;5035554;28;20214;-71
2023/01/03 00:09:19;;;;;;;0.60;0.60;;;;;;;9.36;91.33;99190.84;5035230;28;20190;-70
2023/01/03 00:14:36;;;;;;;0.60;0.60;;;;;;;9.31;92.18;99203.00;5035053;28;20684;-70
2023/01/03 00:17:04;;;;;;;0.80;0.60;;;;;;;9.27;92.39;99207.03;5035334;28;20202;-71
2023/01/03 00:19:34;;;;;;;1.63;0.80;;;;;;;9.21;92.89;99208.63;5035154;28;20212;-70
2023/01/03 00:22:01;;;;;;;1.77;0.70;;;;;;;9.25;92.86;99201.09;5034964;28;20236;-71
2023/01/03 00:24:27;;;;;;;0.77;0.60;;;;;;;9.26;92.69;99202.75;5034892;28;20206;-70
2023/01/03 00:26:54;;;;;;;0.90;0.80;;;;;;;9.24;93.48;99210.09;5035153;28;20296;-71
2023/01/03 00:29:20;;;;;;;1.10;0.80;;;;;;;9.18;94.12;99208.13;5034834;28;20217;-70
2023/01/03 00:31:47;;;;;;;0.70;0.70;;;;;;;9.16;92.71;99216.31;5034968;28;20233;-71
2023/01/03 00:34:14;;;;;;;0.70;0.60;;;;;;;9.26;92.45;99216.00;5034922;28;20225;-71
2023/01/03 00:36:41;;;;;;;0.70;0.70;;;;;;;9.25;91.54;99209.06;5034925;28;20213;-71
2023/01/03 00:39:07;;;;;;;0.60;0.60;;;;;;;9.19;92.91;99213.25;5035231;28;20206;-71
2023/01/03 00:41:34;;;;;;;0.70;0.70;;;;;;;9.16;91.71;99194.25;5034793;28;20222;-71
2023/01/03 00:44:01;;;;;;;0.70;0.70;;;;;;;9.18;91.61;99210.78;5034783;28;20217;-70
2023/01/03 00:46:27;;;;;;;0.90;0.60;;;;;;;9.16;91.82;99218.13;5034504;28;20692;-71
2023/01/03 00:48:54;;;;;;;0.80;0.80;;;;;;;9.19;91.09;99202.66;5034485;28;20217;-71
2023/01/03 00:51:23;;;;;;;0.60;0.50;;;;;;;9.19;90.47;99204.50;5034615;28;20221;-70
2023/01/03 00:53:51;;;;;;;0.77;0.60;;;;;;;9.15;90.55;99205.88;5034285;28;20669;-70
2023/01/03 00:56:20;;;;;;;0.70;0.70;;;;;;;9.20;90.43;99195.53;5034595;28;20233;-70
2023/01/03 00:58:47;;;;;;;0.70;0.67;;;;;;;9.19;91.25;99199.19;5034201;28;20703;-71
2023/01/03 01:01:15;;;;;;;1.10;0.67;;;;;;;9.19;90.46;99199.19;5035032;28;20221;-70
2023/01/03 01:03:46;;;;;;;1.43;0.70;;;;;;;9.12;91.03;99208.88;5034189;28;20256;-71
2023/01/03 01:06:17;;;;;;;0.60;0.60;;;;;;;9.08;91.28;99207.59;5035003;28;20191;-70
2023/01/03 01:08:45;;;;;;;0.60;0.50;;;;;;;9.12;90.87;99209.72;5034461;28;20193;-70
2023/01/03 01:11:12;;;;;;;1.80;0.77;;;;;;;9.14;91.48;99202.38;5034805;28;20574;-70
2023/01/03 01:13:39;;;;;;;0.90;0.67;;;;;;;9.15;91.28;99196.06;5033884;28;20205;-71
2023/01/03 01:16:08;;;;;;;0.80;0.67;;;;;;;9.15;91.63;99197.91;5034188;28;20246;-70
2023/01/03 01:18:35;;;;;;;1.90;0.70;;;;;;;9.18;91.93;99189.56;5033895;28;20209;-71
2023/01/03 01:21:09;;;;;;;1.13;0.70;;;;;;;9.16;91.56;99192.41;5034016;28;20229;-70
2023/01/03 01:23:38;;;;;;;1.00;0.70;;;;;;;9.12;92.55;99198.25;5034211;28;20201;-70
2023/01/03 01:26:06;;;;;;;0.77;0.77;;;;;;;9.12;93.20;99198.25;5033784;28;20572;-71
2023/01/03 01:28:33;;;;;;;0.87;0.73;;;;;;;9.01;93.83;99199.53;5034031;28;20206;-71
2023/01/03 01:31:04;;;;;;;0.70;0.70;;;;;;;9.04;93.23;99208.94;5033921;28;20230;-71
2023/01/03 01:33:33;;;;;;;0.77;0.77;;;;;;;9.00;94.69;99220.94;5034026;28;20191;-70
2023/01/03 01:36:04;;;;;;;1.13;0.60;;;;;;;8.99;94.61;99214.81;5034372;28;20673;-71
2023/01/03 01:38:31;;;;;;;0.50;0.50;;;;;;;8.99;93.56;99213.97;5033895;28;20277;-70
2023/01/03 01:40:57;;;;;;;0.77;0.70;;;;;;;9.08;92.71;99212.88;5033798;28;20222;-71
2023/01/03 01:46:24;;;;;;;0.90;0.90;;;;;;;9.00;92.97;99210.34;5033591;28;20216;-70
2023/01/03 01:48:57;;;;;;;1.70;0.77;;;;;;;8.98;92.88;99212.34;5033524;28;20284;-70
2023/01/03 01:51:26;;;;;;;1.10;0.70;;;;;;;9.00;93.62;99227.06;5033709;28;20230;-71
2023/01/03 01:53:55;;;;;;;0.93;0.73;;;;;;;8.97;93.24;99222.09;5033687;28;20208;-70
2023/01/03 01:56:33;;;;;;;1.13;0.70;;;;;;;8.92;93.64;99228.97;5033302;28;20585;-71
2023/01/03 01:59:00;;;;;;;0.70;0.70;;;;;;;8.89;94.92;99235.47;5033334;28;20708;-71
2023/01/03 02:01:27;;;;;;;1.43;0.80;;;;;;;8.90;94.13;99236.28;5033558;28;20230;-70
2023/01/03 02:04:00;;;;;;;1.10;0.77;;;;;;;8.90;94.54;99236.28;5034432;28;20542;-70
2023/01/03 02:06:28;;;;;;;1.20;0.80;;;;;;;8.93;93.92;99231.44;5033533;28;20186;-71
2023/01/03 02:08:55;;;;;;;0.70;0.70;;;;;;;8.92;93.56;99227.13;5033251;28;20212;-70
2023/01/03 02:11:34;;;;;;;1.63;0.90;;;;;;;8.92;94.10;99224.47;5033082;28;20585;-70
2023/01/03 02:14:24;;;;;;;0.70;0.70;;;;;;;8.89;95.16;99227.50;5033494;28;20277;-70
2023/01/03 02:17:25;;;;;;;0.93;0.93;;;;;;;8.80;95.74;99223.28;5033385;28;20210;-71
2023/01/03 02:20:18;;;;;;;0.97;0.83;;;;;;;8.77;96.53;99225.44;5033196;28;20288;-70
2023/01/03 02:23:16;;;;;;;0.80;0.80;;;;;;;8.73;96.92;99237.44;5032855;28;20238;-71
2023/01/03 02:25:54;;;;;;;0.80;0.60;;;;;;;8.72;96.19;99238.41;5036519;28;20186;-71
2023/01/03 02:28:26;;;;;;;0.80;0.80;;;;;;;8.72;95.65;99238.41;5037098;28;20660;-71
2023/01/03 02:31:12;;;;;;;0.70;0.70;;;;;;;8.73;94.91;99242.75;5037006;28;20216;-70
2023/01/03 02:34:20;;;;;;;0.70;0.70;;;;;;;8.72;94.56;99239.25;5037330;28;20212;-71
2023/01/03 02:37:01;;;;;;;0.70;0.70;;;;;;;8.69;95.07;99236.94;5036938;28;20665;-71
2023/01/03 02:39:57;;;;;;;1.80;0.87;;;;;;;8.59;95.27;99233.72;5037178;28;20190;-71
2023/01/03 02:45:13;;;;;;;2.07;0.80;;;;;;;8.59;95.84;99235.53;5037167;28;20695;-71
2023/01/03 02:47:58;;;;;;;2.07;0.90;;;;;;;8.47;96.84;99229.03;5037051;28;20273;-71
2023/01/03 02:50:29;;;;;;;1.20;0.90;;;;;;;8.40;97.02;99228.06;5037026;28;20194;-71
2023/01/03 02:53:03;;;;;;;1.43;0.90;;;;;;;8.38;97.29;99232.72;5036914;28;20230;-71
2023/01/03 02:55:32;;;;;;;3.33;0.90;;;;;;;8.34;97.78;99231.44;5036704;28;20214;-71
2023/01/03 02:58:09;;;;;;;0.80;0.80;;;;;;;8.41;96.82;99224.44;5036774;28;20217;-70
2023/01/03 03:00:42;;;;;;;0.70;0.70;;;;;;;8.33;98.05;99243.03;5035663;28;20196;-70
2023/01/03 03:03:14;;;;;;;1.37;0.90;;;;;;;8.29;98.24;99244.38;5037283;28;20197;-71
2023/01/03 03:06:18;;;;;;;1.03;0.70;;;;;;;8.19;99.37;99243.75;5036753;28;20186;-70
2023/01/03 03:08:45;;;;;;;0.77;0.77;;;;;;;8.18;99.45;99239.44;5035305;28;20205;-71
2023/01/03 03:14:09;;;;;;;0.80;0.80;;;;;;;8.13;100.00;99253.22;5036484;28;20593;-70
2023/01/03 03:16:48;;;;;;;1.50;0.87;;;;;;;8.16;99.00;99246.75;5036508;28;20214;-70
2023/01/03 03:25:11;;;;;;;2.03;0.87;;;;;;;8.22;99.01;99240.78;5036398;28;20173;-71
2023/01/03 03:30:28;;;;;;;2.37;0.70;;;;;;;8.22;99.18;99232.81;5049147;28;20254;-70
2023/01/03 03:33:00;;;;;;;1.53;0.93;;;;;;;8.23;98.93;99227.34;5036140;28;20233;-70
2023/01/03 03:35:31;;;;;;;1.77;0.60;;;;;;;8.19;100.00;99230.53;5050611;28;20279;-70
2023/01/03 03:37:59;;;;;;;0.80;0.67;;;;;;;8.17;98.82;99230.69;5051135;28;20216;-70
2023/01/03 03:46:34;;;;;;;1.13;0.80;;;;;;;7.99;99.97;99227.47;5035954;28;20166;-70
2023/01/03 03:52:00;;;;;;;1.03;0.80;;;;;;;7.95;100.00;99225.34;5034595;28;20259;-71
2023/01/03 03:54:30;;;;;;;0.77;0.70;;;;;;;7.84;100.00;99239.81;5035835;28;20195;-70
2023/01/03 03:57:09;;;;;;;0.73;0.73;;;;;;;7.87;100.00;99251.88;5050594;28;20708;-70
2023/01/03 03:59:38;;;;;;;1.67;0.87;;;;;;;7.88;100.00;99246.38;5035612;28;20197;-70
2023/01/03 04:02:08;;;;;;;0.97;0.90;;;;;;;7.92;100.00;99242.41;5034487;28;20572;-70
2023/01/03 04:04:42;;;;;;;2.87;0.77;;;;;;;7.74;100.00;99255.06;5035756;28;20210;-70
2023/01/03 04:07:08;;;;;;;0.87;0.70;;;;;;;7.71;100.00;99259.88;5050842;28;20194;-71
2023/01/03 04:09:35;;;;;;;0.80;0.80;;;;;;;7.64;100.00;99256.28;5035113;28;20206;-70
2023/01/03 04:12:01;;;;;;;0.70;0.70;;;;;;;7.75;100.00;99255.91;5034996;28;20713;-70
2023/01/03 04:14:27;;;;;;;0.80;0.80;;;;;;;7.56;100.00;99256.31;5035380;28;20213;-70
2023/01/03 04:16:54;;;;;;;1.77;0.90;;;;;;;7.59;100.00;99256.78;5034903;28;20218;-70
2023/01/03 04:19:20;;;;;;;1.80;0.87;;;;;;;7.57;100.00;99250.00;5035225;28;20206;-70
2023/01/03 04:21:46;;;;;;;1.47;0.90;;;;;;;7.58;100.00;99249.84;5034929;28;20324;-70
2023/01/03 04:24:13;;;;;;;1.57;0.80;;;;;;;7.49;100.00;99248.22;5034667;28;20202;-70
2023/01/03 04:26:39;;;;;;;0.90;0.70;;;;;;;7.45;100.00;99257.50;5034798;28;20206;-70
2023/01/03 04:29:05;;;;;;;1.53;0.90;;;;;;;7.44;100.00;99261.16;5034682;28;20572;-70
2023/01/03 04:31:32;;;;;;;0.87;0.80;;;;;;;7.39;100.00;99254.69;5034836;28;20232;-70
2023/01/03 04:33:58;;;;;;;1.17;0.80;;;;;;;7.38;100.00;99261.00;5034831;28;20205;-70
2023/01/03 04:36:25;;;;;;;1.20;1.03;;;;;;;7.32;100.00;99261.66;5034727;28;20222;-70
2023/01/03 04:38:51;;;;;;;1.30;1.00;;;;;;;7.38;100.00;99251.22;5034745;28;20206;-70
2023/01/03 04:41:17;;;;;;;2.20;0.83;;;;;;;7.42;100.00;99260.47;5034442;28;20234;-70
2023/01/03 04:44:01;;;;;;;1.97;1.00;;;;;;;7.50;100.00;99259.63;5035454;28;20210;-70
2023/01/03 04:46:30;;;;;;;1.30;1.00;;;;;;;7.51;100.00;99263.94;5034510;28;20196;-69
2023/01/03 04:48:56;;;;;;;1.40;1.10;;;;;;;7.46;100.00;99263.63;5034239;28;20213;-70
2023/01/03 04:51:23;;;;;;;1.00;0.80;;;;;;;7.41;100.00;99269.41;5034551;28;20229;-70
2023/01/03 04:53:49;;;;;;;2.40;1.00;;;;;;;7.45;100.00;99267.25;5034653;28;20210;-70
2023/01/03 04:56:15;;;;;;;1.00;0.90;;;;;;;7.50;100.00;99278.13;5034546;28;20237;-70
2023/01/03 04:58:42;;;;;;;1.10;1.00;;;;;;;7.58;100.00;99272.81;5034912;28;20214;-70
2023/01/03 05:01:09;;;;;;;0.90;0.90;;;;;;;7.53;100.00;99261.94;5033776;28;20230;-70
2023/01/03 05:03:37;;;;;;;1.40;1.00;;;;;;;7.51;100.00;99266.59;5034241;28;20202;-70
2023/01/03 05:06:07;;;;;;;1.20;1.10;;;;;;;7.56;100.00;99265.06;5034314;28;20201;-70
2023/01/03 05:08:34;;;;;;;1.80;0.90;;;;;;;7.62;100.00;99261.75;5034083;28;20208;-70
2023/01/03 05:11:00;;;;;;;2.13;1.40;;;;;;;7.60;100.00;99261.06;5034165;28;20312;-70
2023/01/03 05:13:27;;;;;;;1.80;0.90;;;;;;;7.60;100.00;99254.97;5033961;28;20208;-70
2023/01/03 05:15:53;;;;;;;0.80;0.80;;;;;;;7.60;100.00;99255.78;5033823;28;20225;-70
2023/01/03 05:18:19;;;;;;;1.33;1.13;;;;;;;7.54;100.00;99256.47;5033980;28;20202;-70
2023/01/03 05:26:16;;;;;;;2.53;1.03;;;;;;;7.48;100.00;99267.75;5033403;28;20233;-70
2023/01/03 05:28:46;;;;;;;3.50;1.00;;;;;;;7.42;100.00;99257.81;5034164;28;20209;-70
2023/01/03 05:31:13;;;;;;;0.80;0.80;;;;;;;7.43;100.00;99263.94;5033371;28;20221;-70
2023/01/03 05:33:41;;;;;;;3.73;1.10;;;;;;;7.47;100.00;99262.63;5033317;28;20239;-70
2023/01/03 05:36:09;;;;;;;1.33;0.80;;;;;;;7.42;100.00;99272.91;5033208;28;20697;-70
2023/01/03 05:38:35;;;;;;;2.43;0.90;;;;;;;7.39;100.00;99265.28;5033194;28;20202;-70
2023/01/03 05:41:02;;;;;;;2.67;1.00;;;;;;;7.39;100.00;99262.63;5033385;28;20225;-70
2023/01/03 05:43:28;;;;;;;1.10;1.00;;;;;;;7.44;100.00;99276.19;5032991;28;20213;-70
2023/01/03 05:45:54;;;;;;;1.43;0.90;;;;;;;7.42;100.00;99279.00;5033185;28;20213;-70
2023/01/03 05:48:22;;;;;;;0.80;0.80;;;;;;;7.36;100.00;99273.53;5033425;28;20206;-70
2023/01/03 05:50:49;;;;;;;2.47;1.30;;;;;;;7.40;100.00;99285.44;5033123;28;20206;-70
2023/01/03 05:53:16;;;;;;;2.00;1.20;;;;;;;7.37;100.00;99293.75;5033108;28;20213;-70
2023/01/03 05:55:42;;;;;;;1.33;1.13;;;;;;;7.27;100.00;99293.06;5032689;28;20225;-70
2023/01/03 05:58:11;;;;;;;2.50;1.20;;;;;;;7.31;100.00;99297.03;5033164;28;20206;-70
2023/01/03 06:00:38;;;;;;;1.93;1.00;;;;;;;7.28;100.00;99300.84;5032770;28;20218;-70
2023/01/03 06:03:04;;;;;;;2.83;1.20;;;;;;;7.26;100.00;99289.63;5033103;28;20205;-70
2023/01/03 06:05:30;;;;;;;2.53;1.27;;;;;;;7.29;100.00;99299.03;5033237;28;20208;-70
2023/01/03 06:08:00;;;;;;;1.80;0.97;;;;;;;7.27;100.00;99303.66;5033122;28;20208;-69
2023/01/03 06:10:26;;;;;;;1.63;1.10;;;;;;;7.24;100.00;99306.66;5033337;28;20547;-70
2023/01/03 06:12:53;;;;;;;1.60;1.10;;;;;;;7.25;100.00;99303.00;5033221;28;20610;-70
2023/01/03 06:15:19;;;;;;;1.63;1.13;;;;;;;7.26;100.00;99310.78;5033169;28;20228;-70
2023/01/03 06:17:53;;;;;;;1.37;1.07;;;;;;;7.23;100.00;99320.84;5033133;28;20202;-70
2023/01/03 06:20:20;;;;;;;1.87;1.20;;;;;;;7.24;100.00;99304.00;5032853;28;20224;-70
2023/01/03 06:22:46;;;;;;;2.30;1.20;;;;;;;7.28;100.00;99297.41;5032532;28;20229;-70
2023/01/03 06:25:13;;;;;;;1.50;1.20;;;;;;;7.06;100.00;99303.38;5032819;28;20202;-70
2023/01/03 06:27:39;;;;;;;1.97;1.20;;;;;;;6.93;100.00;99313.63;5033028;28;20216;-70
2023/01/03 06:30:06;;;;;;;3.13;1.13;;;;;;;6.89;100.00;99307.00;5033141;28;20221;-70
2023/01/03 06:32:33;;;;;;;3.40;1.67;;;;;;;6.74;100.00;99304.19;5032919;28;20305;-70
2023/01/03 06:34:59;;;;;;;2.40;1.17;;;;;;;6.76;100.00;99309.31;5033028;28;20213;-70
2023/01/03 06:37:25;;;;;;;2.60;1.27;;;;;;;6.69;100.00;99310.97;5032944;28;20218;-70
2023/01/03 06:39:52;;;;;;;5.17;1.40;;;;;;;6.63;100.00;99317.72;5032914;28;20205;-70
2023/01/03 06:53:16;;;;;;;2.40;1.30;;;;;;;6.50;100.00;99332.38;5032439;28;20640;-70
2023/01/03 06:55:44;;;;;;;2.23;1.20;;;;;;;6.44;100.00;99333.88;5032621;28;20226;-70
2023/01/03 06:58:11;;;;;;;1.80;1.50;;;;;;;6.46;100.00;99328.41;5032348;28;20662;-70
2023/01/03 07:00:40;;;;;;;2.37;1.80;;;;;;;6.46;100.00;99334.53;5031400;28;20209;-70
2023/01/03 07:03:06;;;;;;;2.43;1.60;;;;;;;6.52;100.00;99338.34;5033087;28;20662;-70
2023/01/03 07:05:33;;;;;;;3.00;1.50;;;;;;;6.47;100.00;99338.00;5032863;28;20206;-70
2023/01/03 07:08:00;;;;;;;4.53;1.40;;;;;;;6.37;100.00;99342.59;5032397;28;20688;-70
2023/01/03 07:10:26;;;;;;;3.23;1.70;;;;;;;6.41;100.00;99338.63;5033439;28;20210;-70
2023/01/03 07:15:36;;;;;;;3.23;1.60;;;;;;;6.35;100.00;99347.22;5036030;28;20177;-69
2023/01/03 07:18:03;;;;;;;1.83;1.63;;;;;;;6.32;100.00;99344.88;5036164;28;20245;-70
2023/01/03 07:20:29;;;;;;;1.93;1.33;;;;;;;6.28;100.00;99347.03;5035850;28;20217;-70
2023/01/03 07:22:55;;;;;;;4.00;1.87;;;;;;;6.25;100.00;99357.09;5035228;28;20233;-70
2023/01/03 07:25:22;;;;;;;3.37;1.60;;;;;;;6.21;100.00;99359.25;5035934;28;20206;-70
2023/01/03 07:27:57;;;;;;;2.83;1.70;;;;;;;6.16;100.00;99358.88;5035411;28;20210;-70
2023/01/03 07:30:24;;;;;;;2.17;1.80;;;;;;;6.15;100.00;99364.34;5035897;28;20709;-70
2023/01/03 07:32:50;;;;;;;3.10;1.80;;;;;;;6.11;100.00;99363.00;5035622;28;20232;-70
2023/01/03 07:35:17;;;;;;;4.03;1.70;;;;;;;6.18;100.00;99364.00;5035740;28;20209;-70
2023/01/03 07:37:43;;;;;;;4.83;1.73;;;;;;;6.21;100.00;99361.03;5035590;28;20236;-69
2023/01/03 07:40:10;;;;;;;3.43;2.03;;;;;;;6.22;100.00;99365.31;5035437;28;20217;-70
2023/01/03 07:45:20;;;;;;;3.77;1.93;;;;;;;6.33;100.00;99367.69;5035419;28;20263;-70
2023/01/03 07:47:47;;;;;;;2.07;1.87;;;;;;;6.43;100.00;99368.38;5035534;28;20384;-70
2023/01/03 07:50:13;;;;;;;2.30;2.10;;;;;;;6.47;100.00;99370.53;5035576;28;20205;-70
2023/01/03 07:52:40;;;;;;;5.40;2.23;;;;;;;6.51;100.00;99377.16;5035926;28;20576;-70
2023/01/03 07:55:06;;;;;;;8.27;2.67;;;;;;;6.53;100.00;99371.69;5035356;28;20231;-70
2023/01/03 07:57:33;;;;;;;11.47;2.97;;;;;;;6.61;100.00;99377.00;5035618;28;20236;-70
2023/01/03 07:59:59;;;;;;;6.73;2.50;;;;;;;6.68;100.00;99378.84;5035263;28;20205;-70
2023/01/03 08:02:25;;;;;;;9.50;2.27;;;;;;;6.75;100.00;99377.19;5034995;28;20230;-70
2023/01/03 08:04:52;;;;;;;9.20;2.37;;;;;;;6.80;100.00;99380.19;5035022;28;20740;-70
2023/01/03 08:07:18;;;;;;;11.33;2.70;;;;;;;6.90;100.00;99380.03;5034867;28;20703;-70
2023/01/03 08:15:12;;;;;;;6.77;2.27;;;;;;;7.04;100.00;99385.50;5034731;28;20542;-70
2023/01/03 08:17:38;;;;;;;5.87;2.30;;;;;;;7.19;100.00;99385.69;5035192;28;20598;-70
2023/01/03 08:20:05;;;;;;;5.60;2.20;;;;;;;7.19;100.00;99389.13;5034908;28;20593;-70
2023/01/03 08:22:32;;;;;;;3.07;1.90;;;;;;;7.27;100.00;99388.31;5033569;28;20229;-70
2023/01/03 08:24:59;;;;;;;6.60;1.97;;;;;;;7.33;100.00;99390.31;5034915;28;20309;-70
2023/01/03 08:27:25;;;;;;;3.83;1.90;;;;;;;7.33;100.00;99390.31;5034293;28;20669;-69
2023/01/03 08:29:51;;;;;;;3.97;2.00;;;;;;;7.34;100.00;99378.72;5034515;28;20578;-70
2023/01/03 08:32:18;;;;;;;4.03;2.40;;;;;;;7.42;100.00;99381.38;5034741;28;20231;-70
2023/01/03 08:34:47;;;;;;;3.97;2.50;;;;;;;7.46;100.00;99380.03;5034670;28;20296;-70
2023/01/03 08:37:15;;;;;;;4.10;2.40;;;;;;;7.46;100.00;99385.34;5034548;28;20224;-70
2023/01/03 08:39:47;;;;;;;2.77;2.17;;;;;;;7.47;100.00;99384.34;5034109;28;20657;-70
2023/01/03 08:42:19;;;;;;;4.60;2.13;;;;;;;7.44;100.00;99387.31;5034251;28;20230;-70
2023/01/03 08:44:46;;;;;;;3.80;2.37;;;;;;;7.35;100.00;99401.53;5034504;28;20245;-70
2023/01/03 08:47:15;;;;;;;4.87;2.47;;;;;;;7.43;100.00;99396.25;5034284;28;20220;-70
2023/01/03 08:49:42;;;;;;;3.77;2.30;;;;;;;7.44;100.00;99404.03;5033997;28;20540;-70
2023/01/03 08:52:08;;;;;;;8.23;2.30;;;;;;;7.44;100.00;99400.53;5049423;28;20332;-70
2023/01/03 08:54:35;;;;;;;2.83;2.43;;;;;;;7.52;100.00;99404.00;5034430;28;20202;-70
2023/01/03 08:57:01;;;;;;;3.37;2.30;;;;;;;7.48;100.00;99415.09;5034224;28;20233;-70
2023/01/03 08:59:28;;;;;;;5.97;2.13;;;;;;;7.47;100.00;99413.44;5033873;28;20586;-70
2023/01/03 09:01:58;;;;;;;5.37;2.57;;;;;;;7.53;100.00;99410.97;5034174;28;20593;-70
2023/01/03 09:04:25;;;;;;;4.47;1.80;;;;;;;7.56;100.00;99407.97;5034036;28;20194;-70
2023/01/03 09:06:51;;;;;;;5.27;2.40;;;;;;;7.62;100.00;99412.59;5034051;28;20198;-70
2023/01/03 09:09:17;;;;;;;5.70;2.70;;;;;;;7.71;100.00;99416.06;5033963;28;20215;-70
2023/01/03 09:11:44;;;;;;;3.10;2.13;;;;;;;7.76;100.00;99413.72;5034020;28;20234;-70
2023/01/03 09:14:10;;;;;;;3.47;2.00;;;;;;;7.86;100.00;99424.97;5033775;28;20232;-70
2023/01/03 09:16:36;;;;;;;6.77;2.27;;;;;;;7.80;100.00;99420.34;5033862;28;20321;-70
2023/01/03 09:19:03;;;;;;;3.90;2.27;;;;;;;7.83;100.00;99422.66;5033856;28;20202;-70
2023/01/03 09:21:29;;;;;;;3.30;2.30;;;;;;;7.84;100.00;99426.97;5033425;28;20234;-70
2023/01/03 09:23:57;;;;;;;4.07;2.50;;;;;;;7.87;100.00;99426.63;5033591;28;20206;-70
2023/01/03 09:26:24;;;;;;;6.17;2.60;;;;;;;7.82;100.00;99423.63;5033217;28;20201;-70
2023/01/03 09:28:50;;;;;;;7.17;2.30;;;;;;;7.84;100.00;99432.25;5033547;28;20205;-70
2023/01/03 09:31:17;;;;;;;3.13;2.80;;;;;;;7.83;100.00;99434.06;5033412;28;20229;-70
2023/01/03 09:33:43;;;;;;;2.43;2.23;;;;;;;7.84;100.00;99430.44;5033125;28;20206;-70
2023/01/03 09:36:10;;;;;;;3.40;2.40;;;;;;;7.80;100.00;99431.78;5033199;28;20210;-70
2023/01/03 09:38:36;;;;;;;4.63;2.50;;;;;;;7.86;100.00;99444.31;5033370;28;20562;-70
2023/01/03 09:41:18;;;;;;;4.30;2.50;;;;;;;7.79;100.00;99445.16;5033488;28;20226;-70
2023/01/03 09:43:48;;;;;;;3.77;2.67;;;;;;;7.85;100.00;99444.50;5033354;28;20186;-70
2023/01/03 09:46:21;;;;;;;4.27;2.60;;;;;;;7.83;100.00;99435.91;5033194;28;20201;-70
2023/01/03 09:48:49;;;;;;;3.87;2.40;;;;;;;7.86;100.00;99441.69;5033461;28;20198;-70
2023/01/03 10:05:59;;;;;;;5.60;2.97;;;;;;;7.92;100.00;99443.66;5033350;28;20172;-70
2023/01/03 10:08:44;;;;;;;4.33;3.10;;;;;;;7.93;100.00;99445.31;5032795;28;20594;-70
2023/01/03 10:11:39;;;;;;;6.63;2.93;;;;;;;7.98;100.00;99442.16;5032514;28;20228;-70
2023/01/03 10:14:36;;;;;;;4.63;2.80;;;;;;;8.00;100.00;99445.44;5030624;28;20213;-70
2023/01/03 10:17:13;;;;;;;4.77;2.90;;;;;;;8.04;100.00;99454.72;5031350;28;20693;-70
2023/01/03 10:20:15;;;;;;;4.43;2.63;;;;;;;7.97;100.00;99443.16;5032860;28;20190;-70
2023/01/03 10:22:41;;;;;;;5.37;2.83;;;;;;;7.95;100.00;99450.44;5033161;28;20233;-70
2023/01/03 10:25:15;;;;;;;5.10;3.30;;;;;;;8.00;100.00;99450.75;5032859;28;20214;-70
2023/01/03 10:27:47;;;;;;;5.13;3.47;;;;;;;7.91;100.00;99449.09;5033059;28;20190;-69
2023/01/03 10:30:17;;;;;;;4.07;3.40;;;;;;;7.82;100.00;99452.75;5032942;28;20213;-70
2023/01/03 10:33:03;;;;;;;4.30;3.30;;;;;;;7.79;100.00;99445.16;5032732;28;20225;-70
2023/01/03 10:35:32;;;;;;;3.63;3.30;;;;;;;7.78;100.00;99452.28;5032808;28;20205;-70
2023/01/03 10:37:59;;;;;;;5.07;3.90;;;;;;;7.84;100.00;99445.50;5032510;28;20229;-70
2023/01/03 10:40:59;;;;;;;5.40;4.13;;;;;;;7.88;100.00;99442.31;5032548;28;20576;-70
2023/01/03 10:43:43;;;;;;;5.47;3.60;;;;;;;7.92;100.00;99445.47;5041493;28;20210;-70
2023/01/03 10:46:24;;;;;;;5.70;3.43;;;;;;;7.99;100.00;99444.63;5034817;28;20201;-70
2023/01/03 10:48:52;;;;;;;6.20;4.00;;;;;;;8.06;100.00;99448.25;5036265;28;20595;-70
2023/01/03 10:51:40;;;;;;;5.20;3.73;;;;;;;8.15;100.00;99441.13;5036363;28;20229;-70
2023/01/03 10:54:25;;;;;;;4.90;3.60;;;;;;;8.28;100.00;99433.50;5036461;28;20190;-70
2023/01/03 10:56:51;;;;;;;6.67;4.13;;;;;;;8.33;100.00;99429.31;5036435;28;20265;-70
2023/01/03 10:59:26;;;;;;;6.07;4.17;;;;;;;8.35;100.00;99422.03;5036554;28;20214;-70
2023/01/03 11:01:56;;;;;;;6.10;4.87;;;;;;;8.41;100.00;99416.03;5035822;28;20229;-70
2023/01/03 11:04:22;;;;;;;7.37;3.63;;;;;;;8.57;100.00;99421.28;5036323;28;20225;-70
2023/01/03 11:07:01;;;;;;;6.50;3.70;;;;;;;8.59;100.00;99413.97;5036373;28;20206;-70
2023/01/03 11:09:49;;;;;;;5.93;3.80;;;;;;;8.66;100.00;99411.47;5036158;28;20193;-70
2023/01/03 11:12:29;;;;;;;5.67;3.53;;;;;;;8.69;100.00;99413.78;5048719;28;20233;-70
2023/01/03 11:14:57;;;;;;;6.27;3.60;;;;;;;8.76;100.00;99412.91;5036249;28;20189;-70
2023/01/03 11:17:26;;;;;;;5.03;3.20;;;;;;;8.72;100.00;99413.41;5035989;28;20226;-70
2023/01/03 11:19:53;;;;;;;4.13;3.60;;;;;;;8.84;100.00;99409.38;5036013;28;20202;-70
2023/01/03 11:22:37;;;;;;;5.50;3.50;;;;;;;8.85;100.00;99411.00;5035557;28;20240;-70
2023/01/03 11:25:39;;;;;;;5.30;3.57;;;;;;;8.96;99.84;99414.09;5050515;28;20204;-70
2023/01/03 11:28:17;;;;;;;5.83;3.00;;;;;;;9.02;98.68;99401.97;5050923;28;20185;-69
2023/01/03 11:30:59;;;;;;;5.37;3.10;;;;;;;8.98;98.78;99403.31;5036346;28;20197;-70
2023/01/03 11:33:44;;;;;;;6.80;3.80;;;;;;;8.99;98.30;99403.13;5035782;28;20652;-70
2023/01/03 11:36:19;;;;;;;5.37;3.20;;;;;;;9.09;98.22;99401.06;5035303;28;20198;-70
2023/01/03 11:39:10;;;;;;;3.23;2.93;;;;;;;9.13;96.67;99401.53;5050358;28;20221;-70
2023/01/03 11:42:03;;;;;;;5.83;3.23;;;;;;;9.22;95.66;99398.66;5032365;28;20324;-70
2023/01/03 11:44:39;;;;;;;4.87;2.87;;;;;;;9.21;94.46;99401.47;5035631;28;20213;-69
2023/01/03 11:47:23;;;;;;;5.43;2.80;;;;;;;9.09;95.73;99392.31;5035334;28;20210;-70
2023/01/03 11:50:24;;;;;;;3.97;2.83;;;;;;;9.14;94.94;99390.75;5050130;28;20202;-70
2023/01/03 11:53:13;;;;;;;3.93;2.53;;;;;;;9.14;95.80;99387.28;5035397;28;20225;-70
2023/01/03 11:56:09;;;;;;;3.00;2.70;;;;;;;9.33;92.79;99389.44;5035024;28;20190;-70
2023/01/03 11:58:54;;;;;;;4.17;2.40;;;;;;;9.32;91.02;99385.97;5035155;28;20210;-70
2023/01/03 12:01:40;;;;;;;3.30;2.67;;;;;;;9.34;90.33;99378.66;5035490;28;20233;-70
2023/01/03 12:04:23;;;;;;;4.67;2.27;;;;;;;9.64;88.58;99382.19;5035116;28;20673;-70
2023/01/03 12:07:08;;;;;;;4.17;2.10;;;;;;;9.76;86.85;99376.25;5035437;28;20195;-70
2023/01/03 12:09:54;;;;;;;2.60;2.40;;;;;;;9.58;87.76;99380.25;5035324;28;20186;-70
2023/01/03 12:12:33;;;;;;;4.07;2.20;;;;;;;9.47;88.12;99372.72;5030857;28;20221;-70
2023/01/03 12:15:11;;;;;;;4.23;2.33;;;;;;;9.35;90.23;99374.16;5035137;28;20190;-70
2023/01/03 12:17:54;;;;;;;4.50;2.30;;;;;;;9.42;91.34;99364.50;5035640;28;20243;-70
2023/01/03 12:20:34;;;;;;;5.27;2.07;;;;;;;9.41;88.71;99370.81;5034925;28;20190;-70
2023/01/03 12:23:03;;;;;;;4.60;2.00;;;;;;;9.39;89.19;99368.31;5034168;28;20735;-70
2023/01/03 12:25:35;;;;;;;3.23;2.20;;;;;;;9.38;88.51;99376.47;5034568;28;20221;-70
2023/01/03 12:28:13;;;;;;;4.73;2.30;;;;;;;9.44;88.17;99365.13;5034225;28;20187;-70
2023/01/03 12:30:57;;;;;;;3.63;1.93;;;;;;;9.61;86.84;99370.13;5034353;28;20190;-70
2023/01/03 12:33:37;;;;;;;4.23;2.30;;;;;;;9.75;87.12;99368.47;5034261;28;20190;-70
2023/01/03 12:36:30;;;;;;;3.37;2.00;;;;;;;9.61;87.58;99363.97;5034783;28;20191;-70
2023/01/03 12:39:11;;;;;;;3.17;1.80;;;;;;;9.48;88.94;99359.28;5047004;28;20593;-70
2023/01/03 12:42:23;;;;;;;4.80;1.83;;;;;;;9.47;88.70;99359.47;5034343;28;20709;-70
2023/01/03 12:44:59;;;;;;;4.30;1.87;;;;;;;9.44;88.64;99362.47;5034432;28;20220;-70
2023/01/03 12:48:03;;;;;;;2.67;2.00;;;;;;;9.37;89.27;99356.25;5034525;28;20268;-70
2023/01/03 12:50:36;;;;;;;4.13;2.07;;;;;;;9.32;89.24;99354.13;5034135;28;20584;-70
2023/01/03 12:53:31;;;;;;;2.37;1.70;;;;;;;9.39;87.56;99355.06;5034328;28;20200;-70
2023/01/03 12:55:57;;;;;;;4.03;2.13;;;;;;;9.27;89.29;99350.34;5026032;28;20209;-70
2023/01/03 12:58:26;;;;;;;7.43;2.13;;;;;;;9.23;88.95;99349.06;5034050;28;20226;-70
2023/01/03 13:01:28;;;;;;;2.93;1.97;;;;;;;9.18;90.90;99351.41;5034307;28;20548;-70
2023/01/03 13:04:18;;;;;;;3.60;2.33;;;;;;;9.17;90.42;99350.59;5026580;28;20419;-70
2023/01/03 13:06:50;;;;;;;4.17;2.43;;;;;;;9.14;91.82;99358.09;5034224;28;20212;-70
2023/01/03 13:09:22;;;;;;;3.37;2.33;;;;;;;9.07;91.50;99347.38;5033239;28;20186;-70
2023/01/03 13:11:55;;;;;;;3.80;2.27;;;;;;;9.01;93.01;99344.59;5033595;28;20712;-70